»·PEaware :: SAS487 KSBA-KSFO

SAS487 :: KSBA-KSFO

FLIGHT INFORMATION

Flight Status: Arrived
Operator:
SAS
More flights by this operator :: More flights under this callsign
Pilot: Aleks L. (1619)
Aircraft: AIRBUS A320
(a320)
More flights by this aircraft type
Origin: KSBA Santa Barbara Mun
United States
Destination: KSFO San Francisco Intl
United States
More flights between these airports :: More routes between these airports
Route: +GVO MQO STOKD BSR BSR2
File this flight plan on PilotEdge
Remarks:
Altitude:
(Current/Filed)
22,000ft
Speed:
(Current/Filed)
400kts
Departed: 27-Feb-16 05:39 PM
Arrived: 27-Feb-16 06:30 PM
Distance/Time
Traveled:
228nm/0:51
Distance/Time
To Go:
Arrived

Flight Plot

Page will automatically refresh every two minutes.

Flight plan parsing failed; only flown route is shown


Map Options




Map Legend


Flown Route
Filed Route
Departure Airport
Arrival Airport
Navaid (VOR, NDB)
Fix

Horizontal Profiles

Position Reports

Time Latitude Longitude Heading Altitude Ground
Speed
27-Feb-16 17:16 34.424024 -119.837021 105 16ft 0kts
27-Feb-16 17:17 34.424024 -119.837021 105 16ft 0kts
27-Feb-16 17:18 34.424024 -119.837021 105 16ft 0kts
27-Feb-16 17:19 34.424024 -119.837021 105 16ft 0kts
27-Feb-16 17:20 34.424024 -119.837021 105 16ft 0kts
27-Feb-16 17:21 34.424024 -119.837021 105 16ft 0kts
27-Feb-16 17:22 34.424024 -119.837021 105 16ft 0kts
27-Feb-16 17:23 34.424024 -119.837021 105 16ft 0kts
27-Feb-16 17:24 34.424024 -119.837021 105 16ft 0kts
27-Feb-16 17:25 34.424034 -119.837068 104 16ft 0kts
27-Feb-16 17:26 34.423681 -119.837477 340 16ft 0kts
27-Feb-16 17:27 34.423681 -119.837477 340 16ft 0kts
27-Feb-16 17:28 34.426392 -119.838091 66 18ft 4kts
27-Feb-16 17:29 34.426732 -119.834659 352 15ft 0kts
27-Feb-16 17:30 34.426732 -119.834659 352 15ft 0kts
27-Feb-16 17:31 34.427588 -119.834819 309 15ft 4kts
27-Feb-16 17:32 34.427109 -119.862639 266 437ft 181kts
27-Feb-16 17:33 34.420223 -119.927304 255 2843ft 210kts
27-Feb-16 17:34 34.399618 -120.007973 246 2886ft 261kts
27-Feb-16 17:35 34.373265 -120.089250 250 2610ft 259kts
27-Feb-16 17:36 34.356443 -120.156397 254 3299ft 258kts
27-Feb-16 17:37 34.354563 -120.242834 313 5435ft 258kts
27-Feb-16 17:38 34.417101 -120.261413 27 7856ft 269kts
27-Feb-16 17:39 34.469322 -120.190609 53 7904ft 286kts
27-Feb-16 17:40 34.506493 -120.104076 66 7944ft 291kts
27-Feb-16 17:41 34.564572 -120.083500 305 7994ft 267kts
27-Feb-16 17:42 34.607801 -120.154724 315 7986ft 267kts
27-Feb-16 17:43 34.665083 -120.213185 321 9177ft 270kts
27-Feb-16 17:44 34.724699 -120.269101 322 10649ft 274kts
27-Feb-16 17:45 34.788134 -120.327948 322 11196ft 310kts
27-Feb-16 17:46 34.860369 -120.395008 323 11252ft 354kts
27-Feb-16 17:47 34.942826 -120.471730 323 12552ft 384kts
27-Feb-16 17:48 35.028614 -120.551749 322 15064ft 397kts
27-Feb-16 17:49 35.116271 -120.633354 322 17170ft 408kts
27-Feb-16 17:50 35.207545 -120.718034 322 18862ft 418kts
27-Feb-16 17:51 35.292316 -120.768439 345 19827ft 427kts
27-Feb-16 17:52 35.408907 -120.799327 346 20942ft 435kts
27-Feb-16 17:53 35.522259 -120.840813 319 21850ft 439kts
27-Feb-16 17:54 35.611797 -120.933028 321 21965ft 440kts
27-Feb-16 17:55 35.708777 -121.024519 321 21961ft 441kts
27-Feb-16 17:56 35.805574 -121.115663 321 21959ft 440kts
27-Feb-16 17:57 35.902881 -121.207245 320 21960ft 440kts
27-Feb-16 17:58 35.996835 -121.296294 320 21987ft 410kts
27-Feb-16 17:59 36.086389 -121.378696 324 22079ft 409kts
27-Feb-16 18:00 36.174788 -121.447578 323 22092ft 356kts
27-Feb-16 18:01 36.258569 -121.513124 323 22104ft 356kts
27-Feb-16 18:02 36.341949 -121.578483 323 22099ft 355kts
27-Feb-16 18:03 36.425390 -121.644055 323 22150ft 355kts
27-Feb-16 18:04 36.508663 -121.709755 323 22013ft 354kts
27-Feb-16 18:05 36.584113 -121.769513 323 20704ft 348kts
27-Feb-16 18:06 36.650694 -121.822177 323 19437ft 340kts
27-Feb-16 18:07 36.729482 -121.884740 324 17029ft 332kts
27-Feb-16 18:08 36.817361 -121.917363 344 14996ft 334kts
27-Feb-16 18:09 36.906834 -121.940931 343 13107ft 325kts
27-Feb-16 18:10 36.990730 -121.968115 338 12157ft 286kts
27-Feb-16 18:11 37.061899 -121.996144 338 10908ft 276kts
27-Feb-16 18:12 37.133271 -122.024141 340 9841ft 257kts
27-Feb-16 18:13 37.200934 -122.050620 341 8414ft 254kts
27-Feb-16 18:14 37.266166 -122.076184 340 7341ft 240kts
27-Feb-16 18:15 37.328668 -122.100759 340 6097ft 237kts
27-Feb-16 18:16 37.389673 -122.124523 341 4908ft 233kts
27-Feb-16 18:17 37.450972 -122.148599 341 3869ft 230kts
27-Feb-16 18:18 37.513077 -122.167574 345 3317ft 230kts
27-Feb-16 18:19 37.552274 -122.211301 289 2504ft 226kts
27-Feb-16 18:20 37.577935 -122.277994 297 1391ft 189kts
27-Feb-16 18:21 37.596728 -122.322710 296 666ft 128kts
27-Feb-16 18:22 37.613324 -122.362264 295 20ft 127kts
27-Feb-16 18:23 37.622136 -122.384936 267 30ft 0kts
27-Feb-16 18:24 37.621319 -122.387000 210 31ft 14kts

Navigation Log

Ident Type
Flight plan parsing failed, navigation log unavailable